Potomac — WBF7534 — position and weather

sailwx.info

Track history (hours):
 
Tides and Currents Weather Stations Pressure Air Temp Water Temp Dewpoint Dewpoint Depression Visibility Wind Speed Wind Dir Waves Ship Positions

Potomac

Owner: POTOMAC ASSOCIATION, OAKLAND, CA. More information available from US FCC via Universal Licensing System and Coast Guard Vessel Documentation Center.

Last reported at 2017-Feb-05 02:13 UTC. Time now 2017-Feb-27 04:36 UTC.
Position N 37°48' W 122°17'.
Warning: this ship's position is 22 days out of date.

Length 51 m; draft 3.1 m.

MMSI: 367166810.

Date/timePositionNaut miles runAvg speedWind from/ knotsBaromVisibWave heightAir tempDewpointWater temp
2017-Feb-05 02:13N 37°48' W 122°17'4 6.1
2017-Feb-05 01:34N 37°48' W 122°22'6 5.6
2017-Feb-05 00:33N 37°52' W 122°27'6 6.2
2017-Feb-04 23:34N 37°48' W 122°21'3 3.2
2017-Feb-04 22:34N 37°48' W 122°17'  
2017-Jan-30 01:19N 37°48' W 122°17'6 8.4
2017-Jan-30 00:33N 37°51' W 122°24'6 5.9
2017-Jan-29 23:33N 37°48' W 122°30'8 8.4
2017-Jan-29 22:33N 37°48' W 122°19'2 1.7
2017-Jan-29 21:32N 37°48' W 122°17'  
Track history (hours):
 
Tides and Currents Weather Stations Pressure Air Temp Water Temp Dewpoint Dewpoint Depression Visibility Wind Speed Wind Dir Waves Ship Positions

Potomac

Owner: POTOMAC ASSOCIATION, OAKLAND, CA. More information available from US FCC via Universal Licensing System and Coast Guard Vessel Documentation Center.

Last reported at 2017-Feb-05 02:13 UTC. Time now 2017-Feb-27 04:36 UTC.
Position N 37°48' W 122°17'.
Warning: this ship's position is 22 days out of date.

Length 51 m; draft 3.1 m.

MMSI: 367166810.

Date/timePositionNaut miles runAvg speedWind from/ knotsBaromVisibWave heightAir tempDewpointWater temp
2017-Feb-05 02:13N 37°48' W 122°17'4 6.1
2017-Feb-05 01:34N 37°48' W 122°22'6 5.6
2017-Feb-05 00:33N 37°52' W 122°27'6 6.2
2017-Feb-04 23:34N 37°48' W 122°21'3 3.2
2017-Feb-04 22:34N 37°48' W 122°17'  
2017-Jan-30 01:19N 37°48' W 122°17'6 8.4
2017-Jan-30 00:33N 37°51' W 122°24'6 5.9
2017-Jan-29 23:33N 37°48' W 122°30'8 8.4
2017-Jan-29 22:33N 37°48' W 122°19'2 1.7
2017-Jan-29 21:32N 37°48' W 122°17'  

Dump ship's entire track history